sensor_id;sensor_type;location;lat;lon;timestamp;temperature;humidity
48206;DHT22;33995;48.202;16.260;2022-12-18T00:00:43;-0.10;99.90
48206;DHT22;33995;48.202;16.260;2022-12-18T00:03:12;-0.10;99.90
48206;DHT22;33995;48.202;16.260;2022-12-18T00:05:54;-0.10;99.90
48206;DHT22;33995;48.202;16.260;2022-12-18T00:08:24;-0.10;99.90
48206;DHT22;33995;48.202;16.260;2022-12-18T00:11:03;-0.10;99.90
48206;DHT22;33995;48.202;16.260;2022-12-18T00:13:34;-0.10;99.90
48206;DHT22;33995;48.202;16.260;2022-12-18T00:16:13;-0.20;99.90
48206;DHT22;33995;48.202;16.260;2022-12-18T00:18:41;-0.10;99.90
48206;DHT22;33995;48.202;16.260;2022-12-18T00:21:11;-0.20;99.90
48206;DHT22;33995;48.202;16.260;2022-12-18T00:23:41;-0.20;99.90
48206;DHT22;33995;48.202;16.260;2022-12-18T00:26:17;-0.30;99.90
48206;DHT22;33995;48.202;16.260;2022-12-18T00:29:11;-0.30;99.90
48206;DHT22;33995;48.202;16.260;2022-12-18T00:31:43;-0.20;99.90
48206;DHT22;33995;48.202;16.260;2022-12-18T00:34:12;-0.40;99.90
48206;DHT22;33995;48.202;16.260;2022-12-18T00:36:41;-0.40;99.90
48206;DHT22;33995;48.202;16.260;2022-12-18T00:39:24;-0.30;99.90
48206;DHT22;33995;48.202;16.260;2022-12-18T00:41:52;-0.40;99.90
48206;DHT22;33995;48.202;16.260;2022-12-18T00:44:39;-0.40;99.90
48206;DHT22;33995;48.202;16.260;2022-12-18T00:47:09;-0.40;99.90
48206;DHT22;33995;48.202;16.260;2022-12-18T00:49:40;-0.40;99.90
48206;DHT22;33995;48.202;16.260;2022-12-18T00:52:11;-0.50;99.90
48206;DHT22;33995;48.202;16.260;2022-12-18T00:54:39;-0.50;99.90
48206;DHT22;33995;48.202;16.260;2022-12-18T00:57:07;-0.70;99.90
48206;DHT22;33995;48.202;16.260;2022-12-18T00:59:40;-0.70;99.90
48206;DHT22;33995;48.202;16.260;2022-12-18T01:02:11;-0.60;99.90
48206;DHT22;33995;48.202;16.260;2022-12-18T01:04:39;-0.60;99.90
48206;DHT22;33995;48.202;16.260;2022-12-18T01:07:06;-0.70;99.90
48206;DHT22;33995;48.202;16.260;2022-12-18T01:09:36;-0.70;99.90
48206;DHT22;33995;48.202;16.260;2022-12-18T01:12:09;-0.90;99.90
48206;DHT22;33995;48.202;16.260;2022-12-18T01:14:41;-0.80;99.90
48206;DHT22;33995;48.202;16.260;2022-12-18T01:17:10;-0.90;99.90
48206;DHT22;33995;48.202;16.260;2022-12-18T01:19:40;-0.80;99.90
48206;DHT22;33995;48.202;16.260;2022-12-18T01:22:11;-0.90;99.90
48206;DHT22;33995;48.202;16.260;2022-12-18T01:24:38;-0.80;99.90
48206;DHT22;33995;48.202;16.260;2022-12-18T01:27:07;-0.90;99.90
48206;DHT22;33995;48.202;16.260;2022-12-18T01:29:40;-0.90;99.90
48206;DHT22;33995;48.202;16.260;2022-12-18T01:32:11;-0.90;99.90
48206;DHT22;33995;48.202;16.260;2022-12-18T01:34:39;-1.00;99.90
48206;DHT22;33995;48.202;16.260;2022-12-18T01:37:10;-1.00;99.90
48206;DHT22;33995;48.202;16.260;2022-12-18T01:39:39;-1.10;99.90
48206;DHT22;33995;48.202;16.260;2022-12-18T01:42:14;-1.20;99.90
48206;DHT22;33995;48.202;16.260;2022-12-18T01:48:00;-1.40;99.90
48206;DHT22;33995;48.202;16.260;2022-12-18T01:50:48;-1.30;99.90
48206;DHT22;33995;48.202;16.260;2022-12-18T01:53:22;-1.40;99.90
48206;DHT22;33995;48.202;16.260;2022-12-18T01:55:53;-1.40;99.90
48206;DHT22;33995;48.202;16.260;2022-12-18T02:01:16;-1.60;99.90
48206;DHT22;33995;48.202;16.260;2022-12-18T02:03:46;-1.60;99.90
48206;DHT22;33995;48.202;16.260;2022-12-18T02:06:29;-1.60;99.90
48206;DHT22;33995;48.202;16.260;2022-12-18T02:09:15;-1.70;99.90
48206;DHT22;33995;48.202;16.260;2022-12-18T02:17:57;-1.70;99.90
48206;DHT22;33995;48.202;16.260;2022-12-18T02:21:08;-1.70;99.90
48206;DHT22;33995;48.202;16.260;2022-12-18T02:27:07;-1.90;99.90
48206;DHT22;33995;48.202;16.260;2022-12-18T02:29:44;-1.90;99.90
48206;DHT22;33995;48.202;16.260;2022-12-18T02:32:24;-1.90;99.90
48206;DHT22;33995;48.202;16.260;2022-12-18T02:34:55;-1.90;99.90
48206;DHT22;33995;48.202;16.260;2022-12-18T02:37:27;-1.90;99.90
48206;DHT22;33995;48.202;16.260;2022-12-18T02:39:59;-2.00;99.90
48206;DHT22;33995;48.202;16.260;2022-12-18T02:42:31;-2.00;99.90
48206;DHT22;33995;48.202;16.260;2022-12-18T02:45:01;-2.10;99.90
48206;DHT22;33995;48.202;16.260;2022-12-18T02:47:44;-2.20;99.90
48206;DHT22;33995;48.202;16.260;2022-12-18T02:50:26;-2.20;99.90
48206;DHT22;33995;48.202;16.260;2022-12-18T02:53:24;-2.20;99.90
48206;DHT22;33995;48.202;16.260;2022-12-18T02:56:12;-2.20;99.90
48206;DHT22;33995;48.202;16.260;2022-12-18T02:59:02;-2.30;99.90
48206;DHT22;33995;48.202;16.260;2022-12-18T03:07:43;-2.40;99.90
48206;DHT22;33995;48.202;16.260;2022-12-18T03:10:14;-2.50;99.90
48206;DHT22;33995;48.202;16.260;2022-12-18T03:12:51;-2.50;99.90
48206;DHT22;33995;48.202;16.260;2022-12-18T03:15:30;-2.50;99.90
48206;DHT22;33995;48.202;16.260;2022-12-18T03:19:15;-2.50;99.90
48206;DHT22;33995;48.202;16.260;2022-12-18T03:21:14;-2.60;99.90
48206;DHT22;33995;48.202;16.260;2022-12-18T03:23:47;-2.60;99.90
48206;DHT22;33995;48.202;16.260;2022-12-18T03:26:23;-2.70;99.90
48206;DHT22;33995;48.202;16.260;2022-12-18T03:29:04;-2.60;99.90
48206;DHT22;33995;48.202;16.260;2022-12-18T03:31:40;-2.60;99.90
48206;DHT22;33995;48.202;16.260;2022-12-18T03:34:16;-2.60;99.90
48206;DHT22;33995;48.202;16.260;2022-12-18T03:36:50;-2.60;99.90
48206;DHT22;33995;48.202;16.260;2022-12-18T03:39:33;-2.70;99.90
48206;DHT22;33995;48.202;16.260;2022-12-18T03:42:46;-2.90;99.90
48206;DHT22;33995;48.202;16.260;2022-12-18T03:45:21;-2.90;99.90
48206;DHT22;33995;48.202;16.260;2022-12-18T03:48:07;-2.80;99.90
48206;DHT22;33995;48.202;16.260;2022-12-18T03:51:10;-2.90;99.90
48206;DHT22;33995;48.202;16.260;2022-12-18T03:53:59;-3.20;99.90
48206;DHT22;33995;48.202;16.260;2022-12-18T03:56:38;-3.30;99.90
48206;DHT22;33995;48.202;16.260;2022-12-18T03:59:13;-3.20;99.90
48206;DHT22;33995;48.202;16.260;2022-12-18T04:01:49;-3.10;99.90
48206;DHT22;33995;48.202;16.260;2022-12-18T04:04:28;-3.20;99.90
48206;DHT22;33995;48.202;16.260;2022-12-18T04:07:01;-3.20;99.90
48206;DHT22;33995;48.202;16.260;2022-12-18T04:09:32;-3.20;99.90
48206;DHT22;33995;48.202;16.260;2022-12-18T04:12:01;-3.20;99.90
48206;DHT22;33995;48.202;16.260;2022-12-18T04:14:32;-3.30;99.90
48206;DHT22;33995;48.202;16.260;2022-12-18T04:17:06;-3.40;99.90
48206;DHT22;33995;48.202;16.260;2022-12-18T04:19:36;-3.40;99.90
48206;DHT22;33995;48.202;16.260;2022-12-18T04:22:09;-3.40;99.90
48206;DHT22;33995;48.202;16.260;2022-12-18T04:24:42;-3.40;99.90
48206;DHT22;33995;48.202;16.260;2022-12-18T04:27:21;-3.40;99.90
48206;DHT22;33995;48.202;16.260;2022-12-18T04:30:07;-3.40;99.90
48206;DHT22;33995;48.202;16.260;2022-12-18T04:32:36;-3.50;99.90
48206;DHT22;33995;48.202;16.260;2022-12-18T04:35:08;-3.50;99.90
48206;DHT22;33995;48.202;16.260;2022-12-18T04:37:42;-3.60;99.90
48206;DHT22;33995;48.202;16.260;2022-12-18T04:40:11;-3.70;99.90
48206;DHT22;33995;48.202;16.260;2022-12-18T04:42:43;-3.70;99.90
48206;DHT22;33995;48.202;16.260;2022-12-18T04:45:16;-3.80;99.90
48206;DHT22;33995;48.202;16.260;2022-12-18T04:47:47;-3.90;99.90
48206;DHT22;33995;48.202;16.260;2022-12-18T04:50:17;-3.90;99.90
48206;DHT22;33995;48.202;16.260;2022-12-18T04:52:46;-3.90;99.90
48206;DHT22;33995;48.202;16.260;2022-12-18T04:55:17;-3.80;99.90
48206;DHT22;33995;48.202;16.260;2022-12-18T04:57:45;-3.80;99.90
48206;DHT22;33995;48.202;16.260;2022-12-18T05:00:14;-3.90;99.90
48206;DHT22;33995;48.202;16.260;2022-12-18T05:02:44;-3.90;99.90
48206;DHT22;33995;48.202;16.260;2022-12-18T05:05:27;-4.00;99.90
48206;DHT22;33995;48.202;16.260;2022-12-18T05:07:55;-4.00;99.90
48206;DHT22;33995;48.202;16.260;2022-12-18T05:10:26;-3.90;99.90
48206;DHT22;33995;48.202;16.260;2022-12-18T05:12:55;-3.90;99.90
48206;DHT22;33995;48.202;16.260;2022-12-18T05:15:30;-3.90;99.90
48206;DHT22;33995;48.202;16.260;2022-12-18T05:18:00;-3.90;99.90
48206;DHT22;33995;48.202;16.260;2022-12-18T05:20:31;-3.90;99.90
48206;DHT22;33995;48.202;16.260;2022-12-18T05:23:02;-3.90;99.90
48206;DHT22;33995;48.202;16.260;2022-12-18T05:25:31;-4.00;99.90
48206;DHT22;33995;48.202;16.260;2022-12-18T05:27:58;-4.00;99.90
48206;DHT22;33995;48.202;16.260;2022-12-18T05:30:31;-4.20;99.90
48206;DHT22;33995;48.202;16.260;2022-12-18T05:32:59;-4.50;99.90
48206;DHT22;33995;48.202;16.260;2022-12-18T05:35:29;-4.30;99.90
48206;DHT22;33995;48.202;16.260;2022-12-18T05:38:03;-4.20;99.90
48206;DHT22;33995;48.202;16.260;2022-12-18T05:40:31;-4.10;99.90
48206;DHT22;33995;48.202;16.260;2022-12-18T05:43:06;-4.20;99.90
48206;DHT22;33995;48.202;16.260;2022-12-18T05:45:37;-4.20;99.90
48206;DHT22;33995;48.202;16.260;2022-12-18T05:48:07;-4.30;99.90
48206;DHT22;33995;48.202;16.260;2022-12-18T05:50:35;-4.30;99.90
48206;DHT22;33995;48.202;16.260;2022-12-18T05:53:06;-4.30;99.90
48206;DHT22;33995;48.202;16.260;2022-12-18T05:55:47;-4.30;99.90
48206;DHT22;33995;48.202;16.260;2022-12-18T05:58:17;-4.30;99.90
48206;DHT22;33995;48.202;16.260;2022-12-18T06:00:46;-4.30;99.90
48206;DHT22;33995;48.202;16.260;2022-12-18T06:03:13;-4.40;99.90
48206;DHT22;33995;48.202;16.260;2022-12-18T06:05:46;-4.30;99.90
48206;DHT22;33995;48.202;16.260;2022-12-18T06:08:28;-4.30;99.90
48206;DHT22;33995;48.202;16.260;2022-12-18T06:10:57;-4.40;99.90
48206;DHT22;33995;48.202;16.260;2022-12-18T06:13:26;-4.30;99.90
48206;DHT22;33995;48.202;16.260;2022-12-18T06:15:54;-4.40;99.90
48206;DHT22;33995;48.202;16.260;2022-12-18T06:18:26;-4.40;99.90
48206;DHT22;33995;48.202;16.260;2022-12-18T06:21:07;-4.50;99.90
48206;DHT22;33995;48.202;16.260;2022-12-18T06:23:35;-4.40;99.90
48206;DHT22;33995;48.202;16.260;2022-12-18T06:26:10;-4.50;99.90
48206;DHT22;33995;48.202;16.260;2022-12-18T06:28:43;-4.60;99.90
48206;DHT22;33995;48.202;16.260;2022-12-18T06:31:12;-4.60;99.90
48206;DHT22;33995;48.202;16.260;2022-12-18T06:33:41;-4.60;99.90
48206;DHT22;33995;48.202;16.260;2022-12-18T06:36:12;-4.70;99.90
48206;DHT22;33995;48.202;16.260;2022-12-18T06:38:42;-4.60;99.90
48206;DHT22;33995;48.202;16.260;2022-12-18T06:41:15;-4.70;99.90
48206;DHT22;33995;48.202;16.260;2022-12-18T06:43:44;-4.70;99.90
48206;DHT22;33995;48.202;16.260;2022-12-18T06:46:12;-4.70;99.90
48206;DHT22;33995;48.202;16.260;2022-12-18T06:48:41;-4.70;99.90
48206;DHT22;33995;48.202;16.260;2022-12-18T06:51:11;-4.70;99.90
48206;DHT22;33995;48.202;16.260;2022-12-18T06:53:41;-4.80;99.90
48206;DHT22;33995;48.202;16.260;2022-12-18T06:56:09;-4.70;99.90
48206;DHT22;33995;48.202;16.260;2022-12-18T06:58:40;-4.70;99.90
48206;DHT22;33995;48.202;16.260;2022-12-18T07:01:11;-4.70;99.90
48206;DHT22;33995;48.202;16.260;2022-12-18T07:03:41;-4.80;99.90
48206;DHT22;33995;48.202;16.260;2022-12-18T07:06:16;-4.80;99.90
48206;DHT22;33995;48.202;16.260;2022-12-18T07:08:46;-4.80;99.90
48206;DHT22;33995;48.202;16.260;2022-12-18T07:11:15;-4.60;99.90
48206;DHT22;33995;48.202;16.260;2022-12-18T07:13:45;-4.60;99.90
48206;DHT22;33995;48.202;16.260;2022-12-18T07:16:19;-4.60;99.90
48206;DHT22;33995;48.202;16.260;2022-12-18T07:18:54;-4.60;99.90
48206;DHT22;33995;48.202;16.260;2022-12-18T07:21:37;-4.50;99.90
48206;DHT22;33995;48.202;16.260;2022-12-18T07:24:06;-4.50;99.90
48206;DHT22;33995;48.202;16.260;2022-12-18T07:26:41;-4.50;99.90
48206;DHT22;33995;48.202;16.260;2022-12-18T07:29:12;-4.20;99.90
48206;DHT22;33995;48.202;16.260;2022-12-18T07:31:41;-4.30;99.90
48206;DHT22;33995;48.202;16.260;2022-12-18T07:34:16;-4.30;99.90
48206;DHT22;33995;48.202;16.260;2022-12-18T07:36:48;-4.40;99.90
48206;DHT22;33995;48.202;16.260;2022-12-18T07:39:19;-4.50;99.90
48206;DHT22;33995;48.202;16.260;2022-12-18T07:41:50;-4.50;99.90
48206;DHT22;33995;48.202;16.260;2022-12-18T07:44:41;-4.50;99.90
48206;DHT22;33995;48.202;16.260;2022-12-18T07:47:11;-4.50;99.90
48206;DHT22;33995;48.202;16.260;2022-12-18T07:49:40;-4.50;99.90
48206;DHT22;33995;48.202;16.260;2022-12-18T07:52:10;-4.30;99.90
48206;DHT22;33995;48.202;16.260;2022-12-18T07:54:53;-4.20;99.90
48206;DHT22;33995;48.202;16.260;2022-12-18T07:57:22;-4.10;99.90
48206;DHT22;33995;48.202;16.260;2022-12-18T08:00:12;-4.10;99.90
48206;DHT22;33995;48.202;16.260;2022-12-18T08:02:42;-4.10;99.90
48206;DHT22;33995;48.202;16.260;2022-12-18T08:05:09;-4.20;99.90
48206;DHT22;33995;48.202;16.260;2022-12-18T08:07:40;-4.00;99.90
48206;DHT22;33995;48.202;16.260;2022-12-18T08:10:12;-3.90;99.90
48206;DHT22;33995;48.202;16.260;2022-12-18T08:12:40;-3.90;99.90
48206;DHT22;33995;48.202;16.260;2022-12-18T08:15:12;-3.80;99.90
48206;DHT22;33995;48.202;16.260;2022-12-18T08:17:40;-3.90;99.90
48206;DHT22;33995;48.202;16.260;2022-12-18T08:20:10;-3.80;99.90
48206;DHT22;33995;48.202;16.260;2022-12-18T08:22:41;-3.80;99.90
48206;DHT22;33995;48.202;16.260;2022-12-18T08:25:11;-3.70;99.90
48206;DHT22;33995;48.202;16.260;2022-12-18T08:27:40;-3.70;99.90
48206;DHT22;33995;48.202;16.260;2022-12-18T08:30:13;-3.60;99.90
48206;DHT22;33995;48.202;16.260;2022-12-18T08:32:42;-3.50;99.90
48206;DHT22;33995;48.202;16.260;2022-12-18T08:35:10;-3.50;99.90
48206;DHT22;33995;48.202;16.260;2022-12-18T08:37:44;-3.40;99.90
48206;DHT22;33995;48.202;16.260;2022-12-18T08:40:13;-3.30;99.90
48206;DHT22;33995;48.202;16.260;2022-12-18T08:42:44;-3.10;99.90
48206;DHT22;33995;48.202;16.260;2022-12-18T08:45:34;-3.00;99.90
48206;DHT22;33995;48.202;16.260;2022-12-18T08:48:10;-3.00;99.90
48206;DHT22;33995;48.202;16.260;2022-12-18T08:50:38;-3.00;99.90
48206;DHT22;33995;48.202;16.260;2022-12-18T08:53:22;-2.90;99.90
48206;DHT22;33995;48.202;16.260;2022-12-18T08:55:49;-2.90;99.90
48206;DHT22;33995;48.202;16.260;2022-12-18T08:58:23;-2.90;99.90
48206;DHT22;33995;48.202;16.260;2022-12-18T09:00:51;-2.90;99.90
48206;DHT22;33995;48.202;16.260;2022-12-18T09:03:23;-2.90;99.90
48206;DHT22;33995;48.202;16.260;2022-12-18T09:05:51;-2.90;99.90
48206;DHT22;33995;48.202;16.260;2022-12-18T09:08:20;-2.80;99.90
48206;DHT22;33995;48.202;16.260;2022-12-18T09:10:50;-2.80;99.90
48206;DHT22;33995;48.202;16.260;2022-12-18T09:13:21;-2.70;99.90
48206;DHT22;33995;48.202;16.260;2022-12-18T09:15:53;-2.60;99.90
48206;DHT22;33995;48.202;16.260;2022-12-18T09:18:23;-2.60;99.90
48206;DHT22;33995;48.202;16.260;2022-12-18T09:20:54;-2.70;99.90
48206;DHT22;33995;48.202;16.260;2022-12-18T09:23:24;-2.60;99.90
48206;DHT22;33995;48.202;16.260;2022-12-18T09:25:59;-2.70;99.90
48206;DHT22;33995;48.202;16.260;2022-12-18T09:28:33;-2.50;99.90
48206;DHT22;33995;48.202;16.260;2022-12-18T09:31:06;-2.50;99.90
48206;DHT22;33995;48.202;16.260;2022-12-18T09:33:50;-2.40;99.90
48206;DHT22;33995;48.202;16.260;2022-12-18T09:36:28;-2.20;99.90
48206;DHT22;33995;48.202;16.260;2022-12-18T09:38:57;-2.10;99.90
48206;DHT22;33995;48.202;16.260;2022-12-18T09:41:39;-2.10;99.90
48206;DHT22;33995;48.202;16.260;2022-12-18T09:47:20;-1.80;99.90
48206;DHT22;33995;48.202;16.260;2022-12-18T09:50:00;-1.70;99.90
48206;DHT22;33995;48.202;16.260;2022-12-18T09:52:35;-1.60;99.90
48206;DHT22;33995;48.202;16.260;2022-12-18T09:55:45;-1.50;99.90
48206;DHT22;33995;48.202;16.260;2022-12-18T09:58:39;-1.50;99.90
48206;DHT22;33995;48.202;16.260;2022-12-18T10:01:18;-1.50;99.90
48206;DHT22;33995;48.202;16.260;2022-12-18T10:03:51;-1.30;99.90
48206;DHT22;33995;48.202;16.260;2022-12-18T10:09:40;-1.30;99.90
48206;DHT22;33995;48.202;16.260;2022-12-18T10:13:07;-1.40;99.90
48206;DHT22;33995;48.202;16.260;2022-12-18T10:15:52;-1.30;99.90
48206;DHT22;33995;48.202;16.260;2022-12-18T10:21:18;-1.30;99.90
48206;DHT22;33995;48.202;16.260;2022-12-18T10:27:15;-1.60;99.90
48206;DHT22;33995;48.202;16.260;2022-12-18T10:29:45;-1.40;99.90
48206;DHT22;33995;48.202;16.260;2022-12-18T10:32:21;-1.50;99.90
48206;DHT22;33995;48.202;16.260;2022-12-18T10:34:56;-1.40;99.90
48206;DHT22;33995;48.202;16.260;2022-12-18T10:37:29;-1.30;99.90
48206;DHT22;33995;48.202;16.260;2022-12-18T10:40:14;-1.00;99.90
48206;DHT22;33995;48.202;16.260;2022-12-18T10:43:15;-1.00;99.90
48206;DHT22;33995;48.202;16.260;2022-12-18T10:46:12;-1.10;99.90
48206;DHT22;33995;48.202;16.260;2022-12-18T10:56:44;-1.20;99.90
48206;DHT22;33995;48.202;16.260;2022-12-18T10:59:16;-1.10;99.90
48206;DHT22;33995;48.202;16.260;2022-12-18T11:01:58;-1.30;99.90
48206;DHT22;33995;48.202;16.260;2022-12-18T11:04:34;-1.50;99.90
48206;DHT22;33995;48.202;16.260;2022-12-18T11:07:07;-1.40;99.90
48206;DHT22;33995;48.202;16.260;2022-12-18T11:10:00;-1.50;99.90
48206;DHT22;33995;48.202;16.260;2022-12-18T11:12:28;-1.50;99.90
48206;DHT22;33995;48.202;16.260;2022-12-18T11:14:58;-1.40;99.90
48206;DHT22;33995;48.202;16.260;2022-12-18T11:17:40;-1.50;99.90
48206;DHT22;33995;48.202;16.260;2022-12-18T11:20:35;-1.50;99.90
48206;DHT22;33995;48.202;16.260;2022-12-18T11:23:12;-1.60;99.90
48206;DHT22;33995;48.202;16.260;2022-12-18T11:25:57;-1.50;99.90
48206;DHT22;33995;48.202;16.260;2022-12-18T11:28:41;-1.50;99.90
48206;DHT22;33995;48.202;16.260;2022-12-18T11:31:25;-1.40;99.90
48206;DHT22;33995;48.202;16.260;2022-12-18T11:34:29;-1.20;99.90
48206;DHT22;33995;48.202;16.260;2022-12-18T11:37:02;-1.20;99.90
48206;DHT22;33995;48.202;16.260;2022-12-18T11:39:37;-1.20;99.90
48206;DHT22;33995;48.202;16.260;2022-12-18T11:42:37;-1.20;99.90
48206;DHT22;33995;48.202;16.260;2022-12-18T11:48:38;-1.40;99.90
48206;DHT22;33995;48.202;16.260;2022-12-18T11:51:15;-1.30;99.90
48206;DHT22;33995;48.202;16.260;2022-12-18T11:53:55;-1.30;99.90
48206;DHT22;33995;48.202;16.260;2022-12-18T11:56:48;-1.30;99.90
48206;DHT22;33995;48.202;16.260;2022-12-18T12:02:49;-1.30;99.90
48206;DHT22;33995;48.202;16.260;2022-12-18T12:17:54;-1.20;99.90
48206;DHT22;33995;48.202;16.260;2022-12-18T12:21:10;-1.20;99.90
48206;DHT22;33995;48.202;16.260;2022-12-18T12:26:52;-1.10;99.90
48206;DHT22;33995;48.202;16.260;2022-12-18T12:32:53;-1.20;99.90
48206;DHT22;33995;48.202;16.260;2022-12-18T12:35:44;-1.00;99.90
48206;DHT22;33995;48.202;16.260;2022-12-18T12:38:28;-1.00;99.90
48206;DHT22;33995;48.202;16.260;2022-12-18T12:41:06;-0.90;99.90
48206;DHT22;33995;48.202;16.260;2022-12-18T12:43:58;-0.90;99.90
48206;DHT22;33995;48.202;16.260;2022-12-18T12:46:32;-1.00;99.90
48206;DHT22;33995;48.202;16.260;2022-12-18T12:49:03;-1.00;99.90
48206;DHT22;33995;48.202;16.260;2022-12-18T12:51:35;-1.00;99.90
48206;DHT22;33995;48.202;16.260;2022-12-18T12:54:17;-0.90;99.90
48206;DHT22;33995;48.202;16.260;2022-12-18T12:57:21;-0.90;99.90
48206;DHT22;33995;48.202;16.260;2022-12-18T13:00:18;-0.90;99.90
48206;DHT22;33995;48.202;16.260;2022-12-18T13:03:00;-1.00;99.90
48206;DHT22;33995;48.202;16.260;2022-12-18T13:05:51;-0.90;99.90
48206;DHT22;33995;48.202;16.260;2022-12-18T13:08:25;-1.00;99.90
48206;DHT22;33995;48.202;16.260;2022-12-18T13:10:59;-0.90;99.90
48206;DHT22;33995;48.202;16.260;2022-12-18T13:13:54;-0.90;99.90
48206;DHT22;33995;48.202;16.260;2022-12-18T13:16:31;-1.00;99.90
48206;DHT22;33995;48.202;16.260;2022-12-18T13:18:59;-0.90;99.90
48206;DHT22;33995;48.202;16.260;2022-12-18T13:21:33;-1.00;99.90
48206;DHT22;33995;48.202;16.260;2022-12-18T13:24:26;-0.90;99.90
48206;DHT22;33995;48.202;16.260;2022-12-18T13:26:58;-1.00;99.90
48206;DHT22;33995;48.202;16.260;2022-12-18T13:29:44;-0.90;99.90
48206;DHT22;33995;48.202;16.260;2022-12-18T13:32:25;-0.90;99.90
48206;DHT22;33995;48.202;16.260;2022-12-18T13:35:37;-1.00;99.90
48206;DHT22;33995;48.202;16.260;2022-12-18T13:43:53;-1.10;99.90
48206;DHT22;33995;48.202;16.260;2022-12-18T13:46:30;-1.00;99.90
48206;DHT22;33995;48.202;16.260;2022-12-18T13:49:23;-1.00;99.90
48206;DHT22;33995;48.202;16.260;2022-12-18T13:51:55;-1.00;99.90
48206;DHT22;33995;48.202;16.260;2022-12-18T13:54:42;-1.00;99.90
48206;DHT22;33995;48.202;16.260;2022-12-18T13:57:36;-1.10;99.90
48206;DHT22;33995;48.202;16.260;2022-12-18T14:00:28;-1.10;99.90
48206;DHT22;33995;48.202;16.260;2022-12-18T14:02:58;-1.20;99.90
48206;DHT22;33995;48.202;16.260;2022-12-18T14:05:33;-1.20;99.90
48206;DHT22;33995;48.202;16.260;2022-12-18T14:08:13;-1.20;99.90
48206;DHT22;33995;48.202;16.260;2022-12-18T14:10:44;-1.20;99.90
48206;DHT22;33995;48.202;16.260;2022-12-18T14:13:26;-1.20;99.90
48206;DHT22;33995;48.202;16.260;2022-12-18T14:15:56;-1.20;99.90
48206;DHT22;33995;48.202;16.260;2022-12-18T14:18:38;-1.30;99.90
48206;DHT22;33995;48.202;16.260;2022-12-18T14:21:25;-1.20;99.90
48206;DHT22;33995;48.202;16.260;2022-12-18T14:24:15;-1.30;99.90
48206;DHT22;33995;48.202;16.260;2022-12-18T14:26:49;-1.30;99.90
48206;DHT22;33995;48.202;16.260;2022-12-18T14:29:30;-1.30;99.90
48206;DHT22;33995;48.202;16.260;2022-12-18T14:32:13;-1.70;99.90
48206;DHT22;33995;48.202;16.260;2022-12-18T14:34:47;-1.60;99.90
48206;DHT22;33995;48.202;16.260;2022-12-18T14:37:27;-1.50;99.90
48206;DHT22;33995;48.202;16.260;2022-12-18T14:40:12;-1.50;99.90
48206;DHT22;33995;48.202;16.260;2022-12-18T14:42:50;-1.50;99.90
48206;DHT22;33995;48.202;16.260;2022-12-18T14:45:42;-1.50;99.90
48206;DHT22;33995;48.202;16.260;2022-12-18T14:50:57;-1.40;99.90
48206;DHT22;33995;48.202;16.260;2022-12-18T14:53:42;-1.40;99.90
48206;DHT22;33995;48.202;16.260;2022-12-18T14:56:35;-1.50;99.90
48206;DHT22;33995;48.202;16.260;2022-12-18T14:59:23;-1.50;99.90
48206;DHT22;33995;48.202;16.260;2022-12-18T15:01:59;-1.50;99.90
48206;DHT22;33995;48.202;16.260;2022-12-18T15:04:35;-1.40;99.90
48206;DHT22;33995;48.202;16.260;2022-12-18T15:07:22;-1.30;99.90
48206;DHT22;33995;48.202;16.260;2022-12-18T15:20:54;-1.40;99.90
48206;DHT22;33995;48.202;16.260;2022-12-18T15:23:35;-1.40;99.90
48206;DHT22;33995;48.202;16.260;2022-12-18T15:26:10;-1.30;99.90
48206;DHT22;33995;48.202;16.260;2022-12-18T15:28:55;-1.40;99.90
48206;DHT22;33995;48.202;16.260;2022-12-18T15:31:35;-1.30;99.90
48206;DHT22;33995;48.202;16.260;2022-12-18T15:34:12;-1.30;99.90
48206;DHT22;33995;48.202;16.260;2022-12-18T15:36:42;-1.50;99.90
48206;DHT22;33995;48.202;16.260;2022-12-18T15:39:12;-1.50;99.90
48206;DHT22;33995;48.202;16.260;2022-12-18T15:41:53;-1.40;99.90
48206;DHT22;33995;48.202;16.260;2022-12-18T15:44:50;-1.40;99.90
48206;DHT22;33995;48.202;16.260;2022-12-18T15:47:23;-1.40;99.90
48206;DHT22;33995;48.202;16.260;2022-12-18T15:50:06;-1.40;99.90
48206;DHT22;33995;48.202;16.260;2022-12-18T15:52:46;-1.30;99.90
48206;DHT22;33995;48.202;16.260;2022-12-18T15:55:19;-1.30;99.90
48206;DHT22;33995;48.202;16.260;2022-12-18T15:58:11;-1.20;99.90
48206;DHT22;33995;48.202;16.260;2022-12-18T16:00:48;-1.30;99.90
48206;DHT22;33995;48.202;16.260;2022-12-18T16:03:31;-1.40;99.90
48206;DHT22;33995;48.202;16.260;2022-12-18T16:06:00;-1.30;99.90
48206;DHT22;33995;48.202;16.260;2022-12-18T16:08:33;-1.20;99.90
48206;DHT22;33995;48.202;16.260;2022-12-18T16:11:01;-1.30;99.90
48206;DHT22;33995;48.202;16.260;2022-12-18T16:13:33;-1.30;99.90
48206;DHT22;33995;48.202;16.260;2022-12-18T16:16:07;-1.20;99.90
48206;DHT22;33995;48.202;16.260;2022-12-18T16:18:37;-1.20;99.90
48206;DHT22;33995;48.202;16.260;2022-12-18T16:21:19;-1.20;99.90
48206;DHT22;33995;48.202;16.260;2022-12-18T16:23:54;-1.20;99.90
48206;DHT22;33995;48.202;16.260;2022-12-18T16:26:29;-1.20;99.90
48206;DHT22;33995;48.202;16.260;2022-12-18T16:28:59;-1.20;99.90
48206;DHT22;33995;48.202;16.260;2022-12-18T16:31:41;-1.20;99.90
48206;DHT22;33995;48.202;16.260;2022-12-18T16:34:22;-1.20;99.90
48206;DHT22;33995;48.202;16.260;2022-12-18T16:37:01;-1.20;99.90
48206;DHT22;33995;48.202;16.260;2022-12-18T16:39:35;-1.10;99.90
48206;DHT22;33995;48.202;16.260;2022-12-18T16:42:19;-1.10;99.90
48206;DHT22;33995;48.202;16.260;2022-12-18T16:44:53;-1.00;99.90
48206;DHT22;33995;48.202;16.260;2022-12-18T16:47:26;-0.90;99.90
48206;DHT22;33995;48.202;16.260;2022-12-18T16:49:56;-1.00;99.90
48206;DHT22;33995;48.202;16.260;2022-12-18T16:52:31;-1.00;99.90
48206;DHT22;33995;48.202;16.260;2022-12-18T16:55:01;-1.00;99.90
48206;DHT22;33995;48.202;16.260;2022-12-18T16:57:37;-1.00;99.90
48206;DHT22;33995;48.202;16.260;2022-12-18T17:00:09;-0.90;99.90
48206;DHT22;33995;48.202;16.260;2022-12-18T17:02:39;-0.90;99.90
48206;DHT22;33995;48.202;16.260;2022-12-18T17:05:08;-0.90;99.90
48206;DHT22;33995;48.202;16.260;2022-12-18T17:07:41;-1.00;99.90
48206;DHT22;33995;48.202;16.260;2022-12-18T17:10:10;-0.90;99.90
48206;DHT22;33995;48.202;16.260;2022-12-18T17:12:40;-0.90;99.90
48206;DHT22;33995;48.202;16.260;2022-12-18T17:15:11;-1.00;99.90
48206;DHT22;33995;48.202;16.260;2022-12-18T17:17:51;-0.90;99.90
48206;DHT22;33995;48.202;16.260;2022-12-18T17:20:33;-1.00;99.90
48206;DHT22;33995;48.202;16.260;2022-12-18T17:23:03;-1.00;99.90
48206;DHT22;33995;48.202;16.260;2022-12-18T17:25:39;-0.90;99.90
48206;DHT22;33995;48.202;16.260;2022-12-18T17:28:08;-0.90;99.90
48206;DHT22;33995;48.202;16.260;2022-12-18T17:30:38;-0.90;99.90
48206;DHT22;33995;48.202;16.260;2022-12-18T17:33:09;-0.90;99.90
48206;DHT22;33995;48.202;16.260;2022-12-18T17:35:39;-0.90;99.90
48206;DHT22;33995;48.202;16.260;2022-12-18T17:38:09;-0.90;99.90